createdAt,value
2018-05-03T00:01:43.930Z,46.13
2018-05-03T00:04:09.940Z,46.06
2018-05-03T00:06:35.886Z,46.05
2018-05-03T00:09:01.901Z,46.07
2018-05-03T00:11:27.888Z,46.03
2018-05-03T00:13:53.841Z,46.03
2018-05-03T00:16:19.843Z,46.13
2018-05-03T00:18:45.855Z,46.03
2018-05-03T00:21:11.807Z,46.00
2018-05-03T00:23:37.819Z,46.06
2018-05-03T00:26:03.765Z,45.98
2018-05-03T00:28:29.778Z,45.87
2018-05-03T00:30:55.758Z,46.03
2018-05-03T00:33:21.748Z,45.97
2018-05-03T00:35:47.735Z,46.07
2018-05-03T00:38:13.712Z,46.02
2018-05-03T00:40:39.698Z,46.00
2018-05-03T00:43:05.682Z,45.83
2018-05-03T00:45:31.693Z,46.02
2018-05-03T00:47:57.642Z,46.00
2018-05-03T00:50:23.648Z,45.97
2018-05-03T00:52:49.596Z,45.96
2018-05-03T00:55:15.567Z,46.01
2018-05-03T00:57:41.575Z,45.95
2018-05-03T01:00:07.561Z,46.03
2018-05-03T01:05:17.457Z,46.03
2018-05-03T01:07:43.435Z,45.99
2018-05-03T01:10:09.454Z,45.95
2018-05-03T01:12:53.901Z,46.06
2018-05-03T01:15:19.924Z,45.97
2018-05-03T01:17:45.907Z,45.89
2018-05-03T01:20:11.885Z,45.94
2018-05-03T01:22:37.904Z,45.98
2018-05-03T01:25:03.885Z,46.01
2018-05-03T01:27:29.830Z,45.96
2018-05-03T01:29:55.844Z,45.72
2018-05-03T01:32:21.816Z,46.00
2018-05-03T01:34:47.763Z,45.94
2018-05-03T01:37:13.775Z,45.93
2018-05-03T01:39:39.716Z,45.85
2018-05-03T01:42:05.734Z,45.80
2018-05-03T01:44:31.680Z,45.94
2018-05-03T01:46:57.666Z,45.93
2018-05-03T01:49:23.665Z,45.94
2018-05-03T01:51:49.649Z,45.84
2018-05-03T01:54:15.592Z,45.92
2018-05-03T01:56:41.579Z,45.87
2018-05-03T01:59:07.591Z,45.65
2018-05-03T02:01:33.584Z,45.93
2018-05-03T02:03:59.528Z,45.97
2018-05-03T02:06:25.517Z,45.92
2018-05-03T02:08:51.535Z,45.92
2018-05-03T02:11:17.522Z,45.88
2018-05-03T02:13:43.529Z,45.99
2018-05-03T02:16:09.479Z,45.87
2018-05-03T02:18:35.456Z,45.87
2018-05-03T02:21:01.512Z,45.82
2018-05-03T02:23:27.468Z,45.87
2018-05-03T02:25:53.451Z,45.82
2018-05-03T02:28:19.418Z,45.92
2018-05-03T02:30:45.407Z,45.97
2018-05-03T02:33:11.422Z,45.86
2018-05-03T02:35:37.363Z,45.86
2018-05-03T02:38:03.376Z,45.88
2018-05-03T02:40:29.322Z,45.91
2018-05-03T02:42:55.331Z,45.95
2018-05-03T02:45:21.307Z,45.91
2018-05-03T02:47:47.350Z,45.83
2018-05-03T02:50:13.300Z,45.87
2018-05-03T02:52:39.306Z,45.92
2018-05-03T02:55:05.285Z,45.83
2018-05-03T02:57:31.258Z,45.85
2018-05-03T02:59:57.239Z,45.87
2018-05-03T03:02:23.266Z,45.74
2018-05-03T03:04:49.221Z,45.60
2018-05-03T03:07:15.169Z,45.78
2018-05-03T03:09:41.184Z,45.85
2018-05-03T03:12:07.134Z,45.68
2018-05-03T03:14:33.118Z,45.76
2018-05-03T03:16:59.131Z,45.77
2018-05-03T03:19:25.085Z,45.74
2018-05-03T03:21:51.060Z,45.74
2018-05-03T03:24:17.045Z,45.73
2018-05-03T03:26:43.024Z,45.75
2018-05-03T03:29:09.003Z,45.65
2018-05-03T03:31:35.045Z,45.76
2018-05-03T03:34:00.987Z,45.80
2018-05-03T03:36:26.991Z,45.70
2018-05-03T03:38:52.938Z,45.53
2018-05-03T03:41:18.930Z,45.61
2018-05-03T03:43:44.901Z,45.66
2018-05-03T03:46:10.877Z,45.61
2018-05-03T03:48:36.893Z,45.64
2018-05-03T03:51:02.872Z,45.56
2018-05-03T03:53:28.814Z,45.55
2018-05-03T03:55:54.832Z,45.59
2018-05-03T03:58:20.835Z,45.81
2018-05-03T04:00:46.876Z,45.32
2018-05-03T04:03:12.859Z,45.54
2018-05-03T04:05:38.805Z,45.42
2018-05-03T04:08:04.930Z,45.51
2018-05-03T04:10:30.937Z,45.47
2018-05-03T04:12:56.891Z,45.64
2018-05-03T04:15:22.871Z,46.25
2018-05-03T04:17:48.883Z,46.51
2018-05-03T04:20:14.821Z,46.42
2018-05-03T04:22:40.898Z,46.91
2018-05-03T04:25:06.925Z,46.87
2018-05-03T04:27:32.918Z,46.86
2018-05-03T04:29:58.905Z,47.02
2018-05-03T04:32:24.888Z,46.80
2018-05-03T04:34:50.900Z,47.01
2018-05-03T04:37:16.851Z,46.83
2018-05-03T04:39:42.827Z,47.09
2018-05-03T04:42:08.828Z,46.92
2018-05-03T04:44:34.819Z,47.06
2018-05-03T04:47:00.839Z,47.15
2018-05-03T04:49:26.815Z,46.99
2018-05-03T04:51:52.822Z,47.38
2018-05-03T04:54:18.810Z,47.06
2018-05-03T04:56:44.826Z,47.14
2018-05-03T04:59:10.810Z,47.03
2018-05-03T05:01:36.815Z,46.96
2018-05-03T05:04:02.835Z,46.86
2018-05-03T05:06:28.794Z,46.78
2018-05-03T05:08:54.786Z,47.18
2018-05-03T05:11:20.793Z,47.16
2018-05-03T05:13:46.794Z,46.94
2018-05-03T05:16:12.804Z,46.91
2018-05-03T05:18:38.798Z,46.92
2018-05-03T05:21:04.818Z,46.84
2018-05-03T05:23:30.807Z,46.86
2018-05-03T05:25:56.778Z,46.86
2018-05-03T05:28:22.780Z,47.14
2018-05-03T05:30:48.835Z,47.06
2018-05-03T05:33:14.738Z,47.11
2018-05-03T05:35:40.728Z,46.89
2018-05-03T05:38:06.755Z,46.81
2018-05-03T05:40:32.846Z,46.69
2018-05-03T05:42:58.920Z,46.73
2018-05-03T05:45:24.978Z,46.59
2018-05-03T05:47:50.958Z,46.54
2018-05-03T05:50:16.979Z,46.52
2018-05-03T05:52:42.953Z,46.52
2018-05-03T05:55:08.934Z,46.48
2018-05-03T05:57:35.003Z,46.46
2018-05-03T06:00:00.947Z,46.42
2018-05-03T06:02:26.928Z,46.38
2018-05-03T06:04:52.902Z,46.36
2018-05-03T06:07:18.883Z,46.38
2018-05-03T06:09:44.916Z,46.33
2018-05-03T06:12:10.982Z,46.28
2018-05-03T06:14:36.929Z,46.30
2018-05-03T06:17:02.922Z,46.35
2018-05-03T06:19:28.926Z,46.32
2018-05-03T06:21:55.136Z,46.33
2018-05-03T06:24:21.116Z,46.32
2018-05-03T06:26:47.112Z,46.31
2018-05-03T06:29:13.102Z,46.29
2018-05-03T06:31:39.090Z,46.21
2018-05-03T06:34:05.108Z,46.17
2018-05-03T06:36:31.064Z,46.18
2018-05-03T06:38:57.051Z,46.17
2018-05-03T06:41:23.046Z,46.14
2018-05-03T06:43:49.033Z,46.16
2018-05-03T06:46:15.022Z,46.17
2018-05-03T06:48:41.005Z,46.16
2018-05-03T06:51:07.028Z,46.13
2018-05-03T06:53:32.972Z,46.11
2018-05-03T06:55:58.993Z,46.04
2018-05-03T06:58:24.946Z,46.08
2018-05-03T07:00:50.943Z,46.06
2018-05-03T07:03:16.922Z,46.07
2018-05-03T07:05:42.962Z,46.02
2018-05-03T07:08:08.947Z,46.04
2018-05-03T07:10:34.929Z,46.01
2018-05-03T07:13:00.916Z,46.04
2018-05-03T07:15:26.892Z,46.01
2018-05-03T07:17:52.901Z,46.01
2018-05-03T07:20:18.910Z,45.97
2018-05-03T07:22:44.900Z,45.94
2018-05-03T07:25:10.885Z,45.99
2018-05-03T07:27:36.880Z,45.97
2018-05-03T07:30:02.924Z,45.97
2018-05-03T07:32:28.897Z,46.07
2018-05-03T07:34:54.900Z,45.91
2018-05-03T07:37:20.861Z,45.85
2018-05-03T07:39:46.845Z,45.87
2018-05-03T07:42:12.830Z,45.91
2018-05-03T07:44:38.824Z,45.82
2018-05-03T07:47:04.845Z,45.83
2018-05-03T07:49:30.826Z,45.93
2018-05-03T07:51:56.841Z,45.84
2018-05-03T07:54:22.823Z,45.77
2018-05-03T07:56:48.816Z,45.86
2018-05-03T07:59:14.834Z,45.81
2018-05-03T08:01:40.784Z,45.76
2018-05-03T08:04:06.818Z,45.85
2018-05-03T08:06:32.833Z,45.74
2018-05-03T08:08:58.816Z,45.95
2018-05-03T08:11:24.824Z,45.75
2018-05-03T08:13:50.795Z,45.78
2018-05-03T08:16:16.833Z,45.81
2018-05-03T08:18:42.823Z,45.77
2018-05-03T08:21:08.777Z,45.82
2018-05-03T08:23:34.752Z,45.71
2018-05-03T08:26:00.736Z,45.86
2018-05-03T08:28:26.820Z,45.83
2018-05-03T08:30:52.763Z,45.65
2018-05-03T08:33:18.785Z,45.69
2018-05-03T08:35:44.824Z,45.74
2018-05-03T08:38:10.948Z,45.62
2018-05-03T08:40:36.926Z,45.60
2018-05-03T08:43:02.956Z,45.72
2018-05-03T08:45:28.928Z,45.82
2018-05-03T08:47:54.891Z,45.69
2018-05-03T08:50:20.896Z,45.62
2018-05-03T08:52:46.895Z,45.72
2018-05-03T08:55:12.898Z,45.61
2018-05-03T08:57:38.848Z,45.71
2018-05-03T09:00:04.838Z,45.57
2018-05-03T09:02:30.804Z,45.65
2018-05-03T09:04:56.783Z,45.56
2018-05-03T09:07:22.767Z,45.64
2018-05-03T09:09:48.776Z,45.62
2018-05-03T09:12:14.725Z,45.66
2018-05-03T09:14:40.731Z,45.56
2018-05-03T09:17:06.713Z,45.64
2018-05-03T09:19:32.665Z,45.57
2018-05-03T09:21:58.646Z,45.64
2018-05-03T09:24:24.641Z,45.49
2018-05-03T09:26:50.655Z,45.56
2018-05-03T09:29:16.606Z,45.52
2018-05-03T09:31:42.600Z,45.50
2018-05-03T09:34:08.574Z,45.51
2018-05-03T09:36:34.589Z,45.61
2018-05-03T09:39:00.553Z,45.61
2018-05-03T09:41:26.532Z,45.50
2018-05-03T09:43:52.550Z,45.56
2018-05-03T09:46:18.510Z,45.63
2018-05-03T09:48:44.558Z,45.50
2018-05-03T09:51:10.546Z,45.47
2018-05-03T09:53:36.489Z,45.35
2018-05-03T09:56:02.461Z,45.37
2018-05-03T09:58:28.487Z,45.46
2018-05-03T10:00:54.427Z,45.25
2018-05-03T10:03:20.408Z,45.36
2018-05-03T10:05:46.393Z,45.34
2018-05-03T10:08:12.366Z,45.46
2018-05-03T10:10:38.385Z,45.28
2018-05-03T10:13:04.332Z,45.20
2018-05-03T10:15:30.319Z,45.39
2018-05-03T10:17:56.367Z,45.42
2018-05-03T10:20:22.372Z,45.05
2018-05-03T10:22:48.396Z,44.99
2018-05-03T10:25:14.403Z,45.06
2018-05-03T10:27:40.353Z,45.29
2018-05-03T10:30:06.396Z,45.09
2018-05-03T10:32:32.358Z,45.03
2018-05-03T10:34:58.331Z,44.95
2018-05-03T10:37:24.289Z,44.89
2018-05-03T10:39:50.311Z,44.99
2018-05-03T10:42:16.351Z,45.15
2018-05-03T10:44:42.330Z,45.08
2018-05-03T10:47:08.304Z,45.12
2018-05-03T10:49:34.311Z,44.98
2018-05-03T10:52:00.269Z,44.87
2018-05-03T10:54:26.332Z,45.19
2018-05-03T10:56:52.311Z,44.81
2018-05-03T10:59:18.298Z,45.05
2018-05-03T11:01:44.278Z,44.90
2018-05-03T11:04:10.289Z,44.80
2018-05-03T11:06:36.243Z,45.10
2018-05-03T11:09:02.255Z,44.85
2018-05-03T11:11:28.329Z,44.82
2018-05-03T11:13:54.342Z,45.00
2018-05-03T11:16:20.357Z,45.18
2018-05-03T11:18:46.304Z,45.31
2018-05-03T11:21:12.343Z,45.32
2018-05-03T11:23:38.424Z,45.30
2018-05-03T11:26:04.683Z,45.82
2018-05-03T11:28:30.668Z,46.00
2018-05-03T11:30:56.687Z,46.52
2018-05-03T11:33:22.679Z,46.44
2018-05-03T11:35:48.635Z,46.67
2018-05-03T11:38:14.624Z,46.78
2018-05-03T11:40:40.756Z,46.69
2018-05-03T11:43:06.774Z,46.53
2018-05-03T11:45:32.760Z,46.37
2018-05-03T11:47:58.769Z,46.43
2018-05-03T11:50:24.713Z,46.55
2018-05-03T11:52:50.695Z,46.49
2018-05-03T11:55:16.672Z,46.80
2018-05-03T11:57:42.693Z,46.78
2018-05-03T12:00:08.679Z,46.79
2018-05-03T12:02:34.648Z,46.85
2018-05-03T12:05:00.627Z,46.59
2018-05-03T12:07:26.652Z,46.41
2018-05-03T12:09:52.623Z,46.45
2018-05-03T12:12:18.777Z,46.37
2018-05-03T12:14:44.809Z,46.46
2018-05-03T12:17:10.775Z,46.49
2018-05-03T12:19:36.799Z,46.37
2018-05-03T12:22:02.794Z,46.23
2018-05-03T12:24:28.865Z,46.23
2018-05-03T12:26:54.869Z,46.22
2018-05-03T12:29:20.862Z,46.21
2018-05-03T12:31:46.845Z,46.20
2018-05-03T12:34:12.859Z,46.18
2018-05-03T12:36:38.819Z,46.15
2018-05-03T12:39:04.798Z,46.14
2018-05-03T12:41:30.827Z,46.20
2018-05-03T12:43:56.824Z,46.26
2018-05-03T12:46:22.776Z,46.31
2018-05-03T12:48:48.792Z,46.28
2018-05-03T12:51:14.746Z,46.24
2018-05-03T12:53:40.763Z,46.29
2018-05-03T12:56:06.732Z,46.36
2018-05-03T12:58:32.732Z,46.43
2018-05-03T13:00:58.716Z,46.51
2018-05-03T13:03:24.726Z,46.59
2018-05-03T13:05:50.705Z,46.55
2018-05-03T13:08:16.683Z,46.49
2018-05-03T13:10:42.703Z,46.58
2018-05-03T13:13:08.668Z,46.63
2018-05-03T13:15:34.653Z,46.66
2018-05-03T13:18:00.659Z,46.60
2018-05-03T13:20:26.671Z,46.70
2018-05-03T13:22:52.615Z,46.68
2018-05-03T13:25:18.599Z,46.69
2018-05-03T13:27:44.636Z,46.62
2018-05-03T13:30:10.687Z,46.70
2018-05-03T13:32:37.403Z,46.63
2018-05-03T13:35:03.378Z,46.58
2018-05-03T13:37:30.466Z,46.66
2018-05-03T13:39:56.402Z,46.63
2018-05-03T13:42:22.401Z,46.50
2018-05-03T13:44:48.392Z,46.79
2018-05-03T13:47:14.412Z,46.91
2018-05-03T13:49:43.703Z,46.87
2018-05-03T13:52:09.683Z,46.87
2018-05-03T13:54:35.692Z,46.94
2018-05-03T13:57:01.673Z,46.93
2018-05-03T13:59:27.694Z,46.78
2018-05-03T14:01:53.699Z,46.73
2018-05-03T14:04:19.683Z,46.87
2018-05-03T14:06:45.669Z,46.92
2018-05-03T14:09:13.842Z,46.99
2018-05-03T14:11:44.108Z,46.93
2018-05-03T14:14:10.112Z,47.10
2018-05-03T14:16:36.105Z,47.59
2018-05-03T14:19:02.150Z,47.54
2018-05-03T14:21:28.157Z,47.74
2018-05-03T14:23:54.130Z,47.55
2018-05-03T14:26:20.110Z,47.37
2018-05-03T14:28:46.090Z,47.46
2018-05-03T14:31:12.070Z,47.75
2018-05-03T14:33:38.063Z,47.69
2018-05-03T14:36:04.039Z,47.61
2018-05-03T14:38:30.019Z,47.40
2018-05-03T14:40:56.037Z,47.52
2018-05-03T14:43:21.984Z,47.28
2018-05-03T14:45:48.004Z,47.13
2018-05-03T14:48:13.978Z,47.22
2018-05-03T14:50:40.001Z,47.49
2018-05-03T14:53:05.951Z,47.43
2018-05-03T14:55:31.927Z,47.41
2018-05-03T14:57:57.954Z,47.30
2018-05-03T15:00:23.965Z,48.28
2018-05-03T15:02:50.010Z,47.70
2018-05-03T15:05:15.997Z,47.98
2018-05-03T15:07:42.512Z,48.11
2018-05-03T15:10:08.456Z,48.21
2018-05-03T15:12:34.731Z,48.11
2018-05-03T15:15:00.704Z,47.98
2018-05-03T15:17:26.729Z,47.72
2018-05-03T15:19:52.703Z,48.08
2018-05-03T15:22:18.727Z,48.41
2018-05-03T15:24:45.062Z,48.31
2018-05-03T15:27:11.047Z,47.88
2018-05-03T15:29:37.064Z,48.44
2018-05-03T15:32:03.067Z,47.94
2018-05-03T15:34:29.107Z,47.95
2018-05-03T15:36:55.081Z,48.33
2018-05-03T15:39:21.208Z,48.45
2018-05-03T15:41:47.213Z,48.18
2018-05-03T15:44:13.199Z,48.46
2018-05-03T15:46:39.509Z,48.44
2018-05-03T15:49:05.452Z,48.07
2018-05-03T15:51:31.558Z,48.23
2018-05-03T15:53:57.569Z,48.54
2018-05-03T15:56:23.629Z,48.56
2018-05-03T15:58:49.628Z,48.31
2018-05-03T16:01:15.629Z,48.41
2018-05-03T16:03:41.646Z,48.45
2018-05-03T16:06:07.620Z,48.36
2018-05-03T16:08:33.605Z,48.22
2018-05-03T16:10:59.578Z,48.29
2018-05-03T16:13:25.562Z,48.06
2018-05-03T16:15:51.574Z,48.08
2018-05-03T16:18:17.671Z,48.20
2018-05-03T16:20:43.679Z,48.30
2018-05-03T16:23:09.700Z,48.95
2018-05-03T16:25:35.673Z,48.31
2018-05-03T16:28:01.685Z,48.66
2018-05-03T16:30:28.083Z,49.06
2018-05-03T16:32:54.404Z,48.69
2018-05-03T16:35:20.406Z,48.64
2018-05-03T16:37:46.457Z,49.14
2018-05-03T16:40:12.681Z,48.79
2018-05-03T16:42:38.727Z,48.54
2018-05-03T16:45:04.710Z,48.55
2018-05-03T16:47:30.818Z,48.68
2018-05-03T16:49:56.820Z,48.96
2018-05-03T16:52:22.880Z,48.93
2018-05-03T16:54:49.342Z,48.97
2018-05-03T16:57:15.345Z,48.78
2018-05-03T16:59:42.859Z,48.51
2018-05-03T17:02:08.849Z,48.73
2018-05-03T17:04:34.823Z,48.42
2018-05-03T17:07:00.875Z,48.51
2018-05-03T17:09:26.879Z,48.62
2018-05-03T17:11:52.914Z,48.52
2018-05-03T17:14:18.972Z,48.40
2018-05-03T17:16:44.961Z,48.65
2018-05-03T17:19:10.991Z,48.36
2018-05-03T17:21:37.218Z,48.49
2018-05-03T17:24:03.200Z,48.33
2018-05-03T17:26:29.267Z,48.56
2018-05-03T17:28:55.281Z,48.55
2018-05-03T17:31:21.257Z,48.79
2018-05-03T17:33:47.354Z,48.31
2018-05-03T17:36:13.274Z,48.47
2018-05-03T17:38:39.271Z,48.37
2018-05-03T17:41:05.256Z,48.45
2018-05-03T17:43:31.267Z,49.04
2018-05-03T17:45:57.215Z,48.60
2018-05-03T17:48:23.187Z,49.15
2018-05-03T17:50:49.547Z,48.95
2018-05-03T17:53:15.551Z,48.77
2018-05-03T17:55:42.639Z,49.50
2018-05-03T17:58:08.638Z,49.10
2018-05-03T18:00:35.854Z,49.34
2018-05-03T18:03:01.839Z,48.99
2018-05-03T18:05:27.849Z,49.48
2018-05-03T18:07:53.939Z,49.36
2018-05-03T18:10:19.927Z,48.85
2018-05-03T18:12:45.907Z,49.19
2018-05-03T18:15:11.916Z,49.34
2018-05-03T18:17:37.908Z,49.37
2018-05-03T18:20:04.124Z,49.71
2018-05-03T18:22:30.141Z,49.75
2018-05-03T18:24:56.125Z,49.20
2018-05-03T18:27:22.131Z,49.77
2018-05-03T18:29:48.100Z,49.23
2018-05-03T18:32:14.103Z,49.66
2018-05-03T18:34:40.083Z,49.94
2018-05-03T18:37:06.092Z,49.41
2018-05-03T18:39:32.076Z,49.84
2018-05-03T18:41:58.061Z,49.70
2018-05-03T18:44:24.069Z,49.84
2018-05-03T18:46:50.052Z,49.28
2018-05-03T18:49:16.015Z,49.55
2018-05-03T18:51:41.988Z,49.84
2018-05-03T18:54:07.999Z,50.04
2018-05-03T18:56:34.024Z,49.82
2018-05-03T18:59:00.290Z,50.03
2018-05-03T19:01:26.275Z,49.68
2018-05-03T19:03:52.371Z,49.53
2018-05-03T19:06:19.589Z,49.69
2018-05-03T19:08:45.711Z,49.00
2018-05-03T19:11:11.672Z,49.15
2018-05-03T19:13:37.696Z,49.12
2018-05-03T19:16:03.683Z,49.23
2018-05-03T19:18:29.665Z,49.64
2018-05-03T19:20:55.639Z,49.43
2018-05-03T19:23:21.649Z,49.54
2018-05-03T19:25:47.590Z,49.21
2018-05-03T19:28:13.581Z,49.37
2018-05-03T19:30:39.591Z,49.55
2018-05-03T19:33:05.539Z,49.36
2018-05-03T19:35:31.599Z,49.69
2018-05-03T19:37:58.955Z,49.16
2018-05-03T19:40:25.371Z,49.12
2018-05-03T19:42:51.664Z,49.32
2018-05-03T19:45:20.181Z,49.37
2018-05-03T19:47:49.901Z,49.19
2018-05-03T19:50:21.380Z,49.89
2018-05-03T19:52:47.777Z,49.29
2018-05-03T19:55:13.895Z,49.05
2018-05-03T19:57:45.356Z,49.18
2018-05-03T20:00:11.997Z,49.77
2018-05-03T20:02:38.634Z,49.23
2018-05-03T20:05:05.072Z,49.11
2018-05-03T20:07:31.400Z,48.99
2018-05-03T20:09:57.392Z,49.46
2018-05-03T20:12:23.437Z,49.47
2018-05-03T20:14:49.411Z,49.38
2018-05-03T20:17:15.352Z,49.70
2018-05-03T20:19:41.344Z,49.53
2018-05-03T20:22:07.356Z,49.93
2018-05-03T20:24:33.300Z,49.71
2018-05-03T20:26:59.310Z,49.47
2018-05-03T20:29:25.325Z,49.36
2018-05-03T20:31:51.308Z,49.70
2018-05-03T20:34:17.295Z,49.87
2018-05-03T20:36:43.258Z,49.51
2018-05-03T20:39:09.226Z,49.48
2018-05-03T20:41:35.240Z,49.56
2018-05-03T20:44:01.198Z,49.44
2018-05-03T20:46:27.180Z,49.78
2018-05-03T20:48:53.188Z,49.90
2018-05-03T20:51:19.152Z,49.39
2018-05-03T20:53:45.129Z,49.64
2018-05-03T20:56:11.113Z,49.38
2018-05-03T20:58:37.087Z,49.42
2018-05-03T21:01:03.070Z,49.31
2018-05-03T21:03:29.089Z,49.36
2018-05-03T21:05:55.080Z,49.71
2018-05-03T21:08:21.061Z,49.66
2018-05-03T21:10:47.070Z,49.56
2018-05-03T21:13:13.018Z,49.59
2018-05-03T21:15:39.002Z,49.64
2018-05-03T21:18:04.981Z,49.34
2018-05-03T21:20:30.996Z,49.25
2018-05-03T21:22:56.942Z,49.63
2018-05-03T21:25:22.927Z,49.45
2018-05-03T21:27:48.910Z,49.27
2018-05-03T21:30:14.915Z,49.37
2018-05-03T21:32:40.948Z,49.29
2018-05-03T21:35:06.913Z,49.07
2018-05-03T21:37:32.859Z,49.20
2018-05-03T21:39:58.846Z,49.08
2018-05-03T21:42:24.822Z,49.37
2018-05-03T21:44:50.802Z,49.46
2018-05-03T21:47:16.814Z,49.42
2018-05-03T21:49:42.818Z,49.25
2018-05-03T21:52:08.767Z,49.43
2018-05-03T21:54:34.746Z,49.12
2018-05-03T21:57:00.783Z,49.19
2018-05-03T21:59:26.766Z,49.00
2018-05-03T22:01:52.743Z,49.13
2018-05-03T22:04:18.721Z,49.29
2018-05-03T22:06:44.726Z,49.31
2018-05-03T22:09:10.672Z,49.14
2018-05-03T22:11:36.652Z,49.24
2018-05-03T22:14:02.666Z,49.29
2018-05-03T22:16:28.680Z,49.10
2018-05-03T22:18:54.625Z,49.08
2018-05-03T22:21:20.636Z,49.16
2018-05-03T22:23:46.585Z,48.95
2018-05-03T22:26:12.563Z,49.08
2018-05-03T22:28:38.547Z,49.24
2018-05-03T22:31:04.571Z,49.10
2018-05-03T22:33:30.547Z,48.96
2018-05-03T22:35:56.505Z,48.98
2018-05-03T22:38:22.488Z,49.09
2018-05-03T22:40:48.499Z,49.06
2018-05-03T22:43:14.456Z,49.14
2018-05-03T22:45:40.445Z,48.89
2018-05-03T22:48:06.422Z,48.86
2018-05-03T22:50:32.395Z,49.11
2018-05-03T22:52:58.408Z,48.90
2018-05-03T22:55:24.386Z,49.04
2018-05-03T22:57:50.332Z,49.04
2018-05-03T23:00:16.308Z,48.98
2018-05-03T23:02:42.290Z,49.00
2018-05-03T23:05:08.303Z,48.74
2018-05-03T23:07:34.255Z,48.95
2018-05-03T23:10:00.263Z,48.79
2018-05-03T23:12:26.284Z,48.92
2018-05-03T23:14:52.232Z,48.68
2018-05-03T23:17:18.240Z,48.84
2018-05-03T23:19:44.216Z,48.87
2018-05-03T23:22:10.231Z,48.89
2018-05-03T23:24:36.178Z,48.99
2018-05-03T23:27:02.166Z,48.87
2018-05-03T23:29:28.143Z,48.73
2018-05-03T23:31:54.133Z,48.89
2018-05-03T23:34:20.104Z,48.89
2018-05-03T23:36:46.094Z,48.86
2018-05-03T23:39:12.138Z,48.87
2018-05-03T23:41:38.078Z,48.89
2018-05-03T23:44:04.084Z,48.87
2018-05-03T23:46:30.065Z,48.57
2018-05-03T23:48:56.056Z,48.76
2018-05-03T23:51:22.028Z,48.66
2018-05-03T23:53:47.984Z,48.52
2018-05-03T23:56:13.972Z,48.53
2018-05-03T23:58:39.980Z,48.67
